Time;durP1;ratioP1;P1;durP2;ratioP2;P2;SDS_P1;SDS_P2;PMS_P1;PMS_P2;Temp;Humidity;BMP_temperature;BMP_pressure;BME280_temperature;BME280_humidity;BME280_pressure;Samples;Min_cycle;Max_cycle;Signal;HPM_P1;HPM_P2
2021/01/22 00:00:05;;;;;;;4.43;3.23;;;6.60;99.90;;;;;;5085290;28;20380;-73
2021/01/22 00:02:30;;;;;;;4.97;3.03;;;6.80;99.90;;;;;;5080667;28;20375;-73
2021/01/22 00:04:56;;;;;;;6.20;3.60;;;;;;;;;;5084603;28;20483;-73
2021/01/22 00:07:22;;;;;;;4.97;3.28;;;;;;;;;;5079734;28;20372;-72
2021/01/22 00:09:48;;;;;;;5.85;2.95;;;;;;;;;;5084409;28;20422;-72
2021/01/22 00:12:14;;;;;;;3.78;2.50;;;7.30;99.90;;;;;;5085886;28;20401;-73
2021/01/22 00:14:39;;;;;;;4.03;2.90;;;6.60;99.90;;;;;;5079833;28;20407;-72
2021/01/22 00:17:05;;;;;;;3.60;2.53;;;6.90;99.90;;;;;;5074219;28;20402;-72
2021/01/22 00:19:30;;;;;;;3.60;2.40;;;7.50;99.90;;;;;;5082502;28;20382;-73
2021/01/22 00:21:56;;;;;;;3.35;2.42;;;;;;;;;;5082464;28;20389;-73
2021/01/22 00:24:22;;;;;;;2.60;2.40;;;7.00;99.90;;;;;;5081262;28;20907;-72
2021/01/22 00:26:48;;;;;;;3.20;2.17;;;;;;;;;;5082719;28;20390;-73
2021/01/22 00:29:14;;;;;;;3.00;2.10;;;7.30;99.90;;;;;;5081009;28;20386;-72
2021/01/22 00:31:40;;;;;;;2.70;2.10;;;;;;;;;;5081676;28;20429;-73
2021/01/22 00:34:06;;;;;;;2.93;2.27;;;;;;;;;;5084209;28;20367;-73
2021/01/22 00:36:31;;;;;;;3.22;2.20;;;7.70;99.90;;;;;;5080532;28;20375;-73
2021/01/22 00:38:57;;;;;;;2.63;2.00;;;;;;;;;;5084486;28;20387;-73
2021/01/22 00:41:23;;;;;;;2.83;2.30;;;;;;;;;;5079029;28;20371;-73
2021/01/22 00:43:49;;;;;;;3.23;2.20;;;7.40;99.90;;;;;;5083052;28;20453;-73
2021/01/22 00:46:15;;;;;;;2.40;2.00;;;7.70;99.90;;;;;;5073936;28;20490;-73
2021/01/22 00:48:41;;;;;;;2.37;1.87;;;;;;;;;;5083676;28;20403;-73
2021/01/22 00:51:06;;;;;;;2.50;2.10;;;;;;;;;;5083708;28;20478;-73
2021/01/22 00:53:32;;;;;;;3.42;2.10;;;7.10;99.90;;;;;;5080098;28;20374;-72
2021/01/22 00:55:58;;;;;;;3.60;2.27;;;;;;;;;;5075868;28;20383;-73
2021/01/22 00:58:24;;;;;;;3.10;2.13;;;;;;;;;;5070108;28;20457;-73
2021/01/22 01:00:49;;;;;;;2.97;2.17;;;7.40;99.90;;;;;;5070067;28;20441;-74
2021/01/22 01:03:15;;;;;;;3.08;2.13;;;7.20;99.90;;;;;;5070219;28;20383;-74
2021/01/22 01:05:41;;;;;;;2.30;1.90;;;;;;;;;;5070155;28;20439;-75
2021/01/22 01:08:06;;;;;;;3.10;1.90;;;7.50;99.90;;;;;;5068610;28;20411;-75
2021/01/22 01:10:32;;;;;;;2.88;2.03;;;7.50;99.90;;;;;;5069836;28;20408;-74
2021/01/22 01:12:58;;;;;;;2.67;2.10;;;;;;;;;;5069488;28;20379;-74
2021/01/22 01:15:24;;;;;;;3.33;1.92;;;;;;;;;;5069740;28;20384;-73
2021/01/22 01:17:49;;;;;;;2.47;2.00;;;7.20;99.90;;;;;;5070882;28;20368;-73
2021/01/22 01:20:15;;;;;;;3.37;2.10;;;7.10;99.90;;;;;;5082473;28;20870;-73
2021/01/22 01:22:41;;;;;;;2.80;1.87;;;7.10;99.90;;;;;;5069329;28;20880;-74
2021/01/22 01:25:07;;;;;;;3.40;2.00;;;;;;;;;;5069619;28;20769;-74
2021/01/22 01:27:32;;;;;;;2.35;1.88;;;7.40;99.90;;;;;;5082975;28;20436;-73
2021/01/22 01:29:58;;;;;;;2.70;2.17;;;;;;;;;;5069886;28;20388;-74
2021/01/22 01:32:24;;;;;;;2.95;2.00;;;;;;;;;;5069308;28;20439;-73
2021/01/22 01:34:50;;;;;;;2.45;1.98;;;7.50;99.90;;;;;;5069490;28;20388;-73
2021/01/22 01:37:16;;;;;;;2.80;2.03;;;7.40;99.90;;;;;;5071188;28;20396;-73
2021/01/22 01:39:41;;;;;;;3.00;2.17;;;7.30;99.90;;;;;;5073779;28;20445;-72
2021/01/22 01:42:07;;;;;;;4.10;2.30;;;7.50;99.90;;;;;;5073188;28;20384;-72
2021/01/22 01:44:32;;;;;;;2.27;1.90;;;6.70;99.90;;;;;;5073078;28;20781;-73
2021/01/22 01:46:58;;;;;;;3.07;1.90;;;7.00;99.90;;;;;;5069345;28;20436;-72
2021/01/22 01:49:24;;;;;;;2.25;1.80;;;7.40;99.90;;;;;;5069166;28;20387;-72
2021/01/22 01:51:50;;;;;;;2.70;2.00;;;;;;;;;;5068919;28;20798;-72
2021/01/22 01:54:18;;;;;;;2.75;1.80;;;7.50;99.90;;;;;;5068722;28;20738;-72
2021/01/22 01:56:45;;;;;;;2.92;1.92;;;7.30;99.90;;;;;;5069180;28;20376;-72
2021/01/22 01:59:11;;;;;;;2.55;1.92;;;;;;;;;;5069055;28;20413;-72
2021/01/22 02:01:38;;;;;;;2.13;1.90;;;7.50;99.90;;;;;;5068694;28;20500;-74
2021/01/22 02:04:04;;;;;;;2.83;2.17;;;;;;;;;;5068780;28;20408;-73
2021/01/22 02:06:30;;;;;;;2.45;1.90;;;7.30;99.90;;;;;;5068876;28;20425;-72
2021/01/22 02:08:56;;;;;;;2.38;1.90;;;7.20;99.90;;;;;;5068976;28;20384;-72
2021/01/22 02:11:22;;;;;;;2.88;1.98;;;;;;;;;;5068376;28;20463;-72
2021/01/22 02:13:48;;;;;;;2.10;1.90;;;;;;;;;;5068722;28;20468;-72
2021/01/22 02:16:15;;;;;;;2.65;1.80;;;;;;;;;;5068612;28;20611;-73
2021/01/22 02:18:43;;;;;;;2.58;2.03;;;6.90;99.90;;;;;;5068779;28;20450;-72
2021/01/22 02:21:27;;;;;;;2.37;2.13;;;7.30;99.90;;;;;;5068437;28;20387;-73
2021/01/22 02:23:58;;;;;;;3.10;2.20;;;7.30;99.90;;;;;;5079861;28;20390;-73
2021/01/22 02:26:30;;;;;;;2.43;1.83;;;7.30;99.90;;;;;;5070106;28;20539;-72
2021/01/22 02:29:06;;;;;;;2.70;1.88;;;7.20;99.90;;;;;;5068593;28;21036;-73
2021/01/22 02:31:35;;;;;;;2.40;1.83;;;;;;;;;;5068302;28;20500;-73
2021/01/22 02:34:02;;;;;;;2.40;1.90;;;;;;;;;;5068493;28;20383;-72
2021/01/22 02:36:30;;;;;;;3.00;1.95;;;;;;;;;;5068554;28;20418;-72
2021/01/22 02:38:57;;;;;;;2.42;1.90;;;;;;;;;;5068275;28;20384;-72
2021/01/22 02:41:23;;;;;;;2.10;1.90;;;6.70;99.90;;;;;;5068114;28;20429;-73
2021/01/22 02:43:50;;;;;;;2.20;2.00;;;;;;;;;;5068225;28;20383;-73
2021/01/22 02:46:16;;;;;;;2.33;1.77;;;;;;;;;;5068353;28;20917;-73
2021/01/22 02:48:44;;;;;;;2.67;1.80;;;7.30;99.90;;;;;;5068484;28;20882;-73
2021/01/22 02:51:13;;;;;;;2.60;1.65;;;;;;;;;;5068169;28;20388;-73
2021/01/22 02:53:39;;;;;;;2.60;1.70;;;7.10;99.90;;;;;;5068082;28;20733;-73
2021/01/22 02:56:13;;;;;;;3.92;1.60;;;7.10;99.90;;;;;;5068386;28;20440;-72
2021/01/22 02:58:47;;;;;;;3.10;1.88;;;;;;;;;;5068204;28;20453;-72
2021/01/22 03:01:18;;;;;;;2.42;1.90;;;6.80;99.90;;;;;;5068060;28;20787;-72
2021/01/22 03:03:57;;;;;;;2.20;1.80;;;;;;;;;;5068123;28;20398;-72
2021/01/22 03:06:28;;;;;;;2.03;1.60;;;;;;;;;;5069600;28;20399;-72
2021/01/22 03:08:54;;;;;;;2.33;1.65;;;;;;;;;;5072245;28;20379;-73
2021/01/22 03:11:23;;;;;;;2.08;1.88;;;;;;;;;;5072028;28;20873;-72
2021/01/22 03:13:50;;;;;;;2.92;1.80;;;;;;;;;;5072249;28;20384;-72
2021/01/22 03:16:16;;;;;;;2.55;1.73;;;;;;;;;;5071987;28;20415;-72
2021/01/22 03:19:03;;;;;;;2.15;1.83;;;7.40;99.90;;;;;;5072166;28;20409;-73
2021/01/22 03:21:29;;;;;;;2.15;1.75;;;;;;;;;;5071841;28;20418;-72
2021/01/22 03:23:55;;;;;;;3.03;1.50;;;7.60;99.90;;;;;;5071857;28;20397;-73
2021/01/22 03:26:20;;;;;;;2.03;1.70;;;7.60;99.90;;;;;;5072418;28;20495;-73
2021/01/22 03:28:46;;;;;;;2.35;1.52;;;7.50;99.90;;;;;;5072184;28;20466;-72
2021/01/22 03:31:12;;;;;;;2.60;1.60;;;7.50;99.90;;;;;;5071556;28;20379;-72
2021/01/22 03:33:37;;;;;;;1.90;1.50;;;7.50;99.90;;;;;;5071734;28;20433;-72
2021/01/22 03:36:04;;;;;;;3.15;1.63;;;;;;;;;;5071789;28;20896;-72
2021/01/22 03:38:29;;;;;;;1.80;1.55;;;7.50;99.90;;;;;;5071755;28;20375;-72
2021/01/22 03:40:55;;;;;;;2.05;1.48;;;7.50;99.90;;;;;;5071537;28;20799;-73
2021/01/22 03:43:21;;;;;;;2.30;1.63;;;7.80;99.90;;;;;;5071559;28;20387;-73
2021/01/22 03:45:47;;;;;;;1.85;1.40;;;;;;;;;;5089312;28;20394;-73
2021/01/22 03:48:13;;;;;;;5.82;1.80;;;7.60;99.90;;;;;;5090525;28;20438;-73
2021/01/22 03:50:38;;;;;;;2.40;1.60;;;7.50;99.90;;;;;;5091690;28;20378;-73
2021/01/22 03:53:04;;;;;;;1.97;1.50;;;;;;;;;;5091747;28;20389;-73
2021/01/22 03:55:29;;;;;;;2.40;1.60;;;7.00;99.90;;;;;;5091685;28;20520;-73
2021/01/22 03:57:55;;;;;;;2.67;1.70;;;7.20;99.90;;;;;;5091677;28;20864;-73
2021/01/22 04:00:21;;;;;;;1.50;1.40;;;7.10;99.90;;;;;;5091605;28;20927;-72
2021/01/22 04:02:46;;;;;;;1.80;1.50;;;7.40;99.90;;;;;;5091466;28;20382;-73
2021/01/22 04:05:12;;;;;;;2.10;1.50;;;7.10;99.90;;;;;;5091655;28;20918;-72
2021/01/22 04:07:38;;;;;;;1.83;1.50;;;7.60;99.90;;;;;;5091336;28;20468;-72
2021/01/22 04:10:05;;;;;;;1.85;1.30;;;;;;;;;;5086655;28;20384;-73
2021/01/22 04:12:31;;;;;;;2.50;1.25;;;;;;;;;;5070839;28;20458;-72
2021/01/22 04:14:57;;;;;;;3.00;1.53;;;;;;;;;;5070903;28;20565;-73
2021/01/22 04:17:22;;;;;;;1.92;1.30;;;7.30;99.90;;;;;;5070927;28;20387;-72
2021/01/22 04:19:48;;;;;;;1.80;1.40;;;7.40;99.90;;;;;;5070999;28;20379;-73
2021/01/22 04:22:14;;;;;;;1.55;1.30;;;;;;;;;;5070807;28;20390;-73
2021/01/22 04:24:40;;;;;;;1.90;1.30;;;7.70;99.90;;;;;;5070712;28;20411;-73
2021/01/22 04:27:05;;;;;;;2.23;1.40;;;7.30;99.90;;;;;;5070794;28;20772;-73
2021/01/22 04:29:31;;;;;;;1.80;1.30;;;;;;;;;;5070860;28;20925;-73
2021/01/22 04:31:57;;;;;;;1.70;1.20;;;;;;;;;;5070864;28;20384;-73
2021/01/22 04:34:23;;;;;;;1.92;1.20;;;7.40;99.90;;;;;;5070539;28;20854;-73
2021/01/22 04:36:49;;;;;;;1.40;1.13;;;7.30;99.90;;;;;;5070634;28;20384;-73
2021/01/22 04:39:15;;;;;;;1.83;1.27;;;;;;;;;;5070477;28;20830;-73
2021/01/22 04:41:40;;;;;;;1.83;1.20;;;7.60;99.90;;;;;;5070358;28;20463;-72
2021/01/22 04:44:06;;;;;;;1.23;1.00;;;7.20;99.90;;;;;;5070586;28;20873;-72
2021/01/22 04:46:36;;;;;;;1.13;1.00;;;;;;;;;;5070411;28;20433;-72
2021/01/22 04:49:03;;;;;;;1.60;1.23;;;7.50;99.90;;;;;;5070187;28;20742;-73
2021/01/22 04:51:30;;;;;;;1.65;1.30;;;6.20;99.90;;;;;;5070043;28;20376;-72
2021/01/22 04:53:58;;;;;;;2.35;1.10;;;;;;;;;;5070321;28;20429;-72
2021/01/22 04:56:25;;;;;;;1.50;1.00;;;7.00;99.90;;;;;;5070475;28;20382;-73
2021/01/22 04:58:57;;;;;;;1.80;1.10;;;7.20;99.90;;;;;;5070392;28;20497;-73
2021/01/22 05:01:22;;;;;;;2.10;1.00;;;7.00;99.90;;;;;;5070048;28;21205;-73
2021/01/22 05:03:48;;;;;;;2.30;1.10;;;7.50;99.90;;;;;;5070071;28;20398;-73
2021/01/22 05:06:16;;;;;;;1.27;1.00;;;6.70;99.90;;;;;;5069961;28;20480;-73
2021/01/22 05:08:42;;;;;;;2.10;1.30;;;;;;;;;;5068911;28;20754;-73
2021/01/22 05:11:08;;;;;;;1.83;1.20;;;;;;;;;;5069906;28;20382;-73
2021/01/22 05:13:36;;;;;;;2.70;1.47;;;7.00;99.90;;;;;;5069933;28;20886;-73
2021/01/22 05:16:14;;;;;;;2.23;1.37;;;7.20;99.90;;;;;;5069744;28;20399;-72
2021/01/22 05:18:41;;;;;;;1.67;1.13;;;;;;;;;;5057664;28;20607;-72
2021/01/22 05:21:11;;;;;;;1.60;1.17;;;;;;;;;;5069351;28;20380;-71
2021/01/22 05:23:40;;;;;;;1.95;1.30;;;;;;;;;;5069753;28;20551;-73
2021/01/22 05:26:07;;;;;;;2.65;1.35;;;;;;;;;;5069480;28;20469;-73
2021/01/22 05:28:40;;;;;;;1.25;1.15;;;7.00;99.90;;;;;;5068706;28;20797;-73
2021/01/22 05:31:11;;;;;;;2.10;1.42;;;;;;;;;;5069237;28;20402;-73
2021/01/22 05:33:37;;;;;;;2.05;1.17;;;;;;;;;;5069509;28;20431;-73
2021/01/22 05:36:22;;;;;;;2.70;1.45;;;6.80;99.90;;;;;;5069360;28;20372;-73
2021/01/22 05:38:49;;;;;;;2.17;1.10;;;7.40;99.90;;;;;;5069415;28;20416;-74
2021/01/22 05:41:15;;;;;;;3.05;1.33;;;6.70;99.90;;;;;;5069148;28;20407;-74
2021/01/22 05:43:41;;;;;;;2.30;1.10;;;;;;;;;;5069194;28;20434;-73
2021/01/22 05:46:14;;;;;;;1.60;1.13;;;7.10;99.90;;;;;;5069103;28;20400;-74
2021/01/22 05:48:40;;;;;;;2.00;1.23;;;7.10;99.90;;;;;;5069281;28;20380;-73
2021/01/22 05:51:07;;;;;;;1.80;1.20;;;;;;;;;;5067688;28;20388;-73
2021/01/22 05:53:33;;;;;;;3.60;1.15;;;7.20;99.90;;;;;;5068933;28;20866;-73
2021/01/22 05:56:17;;;;;;;3.53;1.20;;;7.40;99.90;;;;;;5069074;28;20386;-72
2021/01/22 05:58:44;;;;;;;1.75;1.10;;;;;;;;;;5068953;28;20881;-73
2021/01/22 06:01:10;;;;;;;3.00;1.30;;;7.30;99.90;;;;;;5068951;28;20785;-73
2021/01/22 06:03:37;;;;;;;1.92;1.30;;;7.20;99.90;;;;;;5067440;28;20403;-73
2021/01/22 06:06:04;;;;;;;3.08;1.90;;;;;;;;;;5068672;28;20919;-74
2021/01/22 06:08:29;;;;;;;2.73;1.23;;;7.40;99.90;;;;;;5068754;28;20387;-74
2021/01/22 06:10:55;;;;;;;2.90;1.30;;;7.20;99.90;;;;;;5069254;28;20384;-73
2021/01/22 06:13:25;;;;;;;4.32;1.80;;;7.00;99.90;;;;;;5068798;28;20434;-71
2021/01/22 06:15:54;;;;;;;3.30;1.40;;;7.40;99.90;;;;;;5068620;28;20427;-72
2021/01/22 06:18:23;;;;;;;3.10;1.80;;;;;;;;;;5068603;28;20425;-72
2021/01/22 06:20:52;;;;;;;2.97;1.45;;;;;;;;;;5068285;28;20380;-72
2021/01/22 06:23:18;;;;;;;2.67;1.50;;;;;;;;;;5068403;28;20386;-72
2021/01/22 06:25:46;;;;;;;2.65;1.30;;;7.40;99.90;;;;;;5068682;28;20576;-72
2021/01/22 06:28:12;;;;;;;3.75;1.50;;;7.10;99.90;;;;;;5068469;28;20383;-72
2021/01/22 06:30:40;;;;;;;2.83;1.63;;;;;;;;;;5068430;28;20391;-72
2021/01/22 06:33:07;;;;;;;4.27;2.80;;;;;;;;;;5068212;28;20376;-72
2021/01/22 06:35:35;;;;;;;4.20;1.98;;;7.40;99.90;;;;;;5068390;28;20466;-72
2021/01/22 06:38:01;;;;;;;3.15;1.73;;;;;;;;;;5068394;28;20743;-72
2021/01/22 06:40:28;;;;;;;5.82;3.17;;;;;;;;;;5068377;28;20418;-72
2021/01/22 06:42:55;;;;;;;3.60;1.77;;;7.10;99.90;;;;;;5054652;28;20841;-72
2021/01/22 06:45:22;;;;;;;4.78;1.70;;;8.20;99.90;;;;;;5068395;28;20408;-72
2021/01/22 06:47:59;;;;;;;4.05;1.63;;;7.50;99.90;;;;;;5068339;28;20372;-72
2021/01/22 06:50:25;;;;;;;4.57;1.48;;;6.90;99.90;;;;;;5068090;28;20407;-72
2021/01/22 06:53:10;;;;;;;3.08;1.50;;;7.50;99.90;;;;;;5068300;28;20384;-72
2021/01/22 06:55:52;;;;;;;3.00;1.60;;;;;;;;;;5068731;28;20413;-72
2021/01/22 06:58:28;;;;;;;3.15;1.48;;;6.90;99.90;;;;;;5068164;28;20376;-72
2021/01/22 07:00:56;;;;;;;3.75;1.90;;;7.30;99.90;;;;;;5067788;28;20394;-72
2021/01/22 07:03:37;;;;;;;3.45;1.70;;;7.50;99.90;;;;;;5068001;28;20384;-72
2021/01/22 07:06:37;;;;;;;3.88;1.80;;;6.90;99.90;;;;;;5068217;28;20400;-72
2021/01/22 07:09:04;;;;;;;4.87;1.93;;;7.50;99.90;;;;;;5067929;28;20386;-72
2021/01/22 07:11:49;;;;;;;4.22;1.90;;;7.50;99.90;;;;;;5066376;28;20477;-72
2021/01/22 07:14:46;;;;;;;3.42;1.77;;;6.90;99.90;;;;;;5067876;28;20397;-72
2021/01/22 07:17:16;;;;;;;3.20;1.80;;;;;;;;;;5068036;28;20388;-72
2021/01/22 07:19:48;;;;;;;4.53;1.80;;;;;;;;;;5067962;28;20459;-72
2021/01/22 07:22:15;;;;;;;3.83;1.60;;;;;;;;;;5067636;28;20364;-72
2021/01/22 07:24:49;;;;;;;4.20;1.60;;;7.30;99.90;;;;;;5067560;28;20414;-72
2021/01/22 07:27:16;;;;;;;4.22;1.70;;;;;;;;;;5067832;28;20387;-72
2021/01/22 07:29:42;;;;;;;4.07;1.87;;;;;;;;;;5067653;28;20569;-72
2021/01/22 07:32:09;;;;;;;4.65;2.13;;;;;;;;;;5067484;28;20376;-72
2021/01/22 07:34:41;;;;;;;5.10;3.38;;;6.90;99.90;;;;;;5067802;28;20900;-71
2021/01/22 07:37:09;;;;;;;4.38;1.90;;;7.60;99.90;;;;;;5067881;28;20383;-72
2021/01/22 07:39:35;;;;;;;4.18;1.73;;;7.50;99.90;;;;;;5067818;28;20390;-72
2021/01/22 07:42:09;;;;;;;3.92;1.65;;;;;;;;;;5067454;28;20391;-72
2021/01/22 07:44:36;;;;;;;5.07;1.90;;;7.70;99.90;;;;;;5067602;28;20459;-72
2021/01/22 07:47:03;;;;;;;4.30;1.90;;;7.80;99.90;;;;;;5067633;28;20399;-72
2021/01/22 07:49:29;;;;;;;3.35;1.80;;;7.50;99.90;;;;;;5066376;28;20765;-72
2021/01/22 07:51:54;;;;;;;3.78;1.65;;;7.40;99.90;;;;;;5081373;28;20390;-72
2021/01/22 07:54:20;;;;;;;2.70;1.73;;;7.50;99.90;;;;;;5091400;28;20374;-72
2021/01/22 07:56:47;;;;;;;4.13;1.75;;;7.60;99.90;;;;;;5091575;28;20397;-72
2021/01/22 07:59:13;;;;;;;5.30;1.75;;;;;;;;;;5091435;28;20374;-72
2021/01/22 08:01:39;;;;;;;3.03;1.60;;;;;;;;;;5090919;28;20377;-72
2021/01/22 08:04:06;;;;;;;4.87;1.90;;;7.10;99.90;;;;;;5091122;28;20443;-72
2021/01/22 08:06:48;;;;;;;4.47;2.08;;;7.50;99.90;;;;;;5091067;28;20409;-72
2021/01/22 08:09:17;;;;;;;2.97;1.70;;;7.20;99.90;;;;;;5091127;28;20435;-72
2021/01/22 08:11:48;;;;;;;2.88;1.50;;;7.80;99.90;;;;;;5072569;28;20410;-72
2021/01/22 08:14:14;;;;;;;2.90;1.60;;;;;;;;;;5070809;28;20785;-72
2021/01/22 08:16:42;;;;;;;3.03;1.70;;;;;;;;;;5070476;28;20391;-72
2021/01/22 08:19:08;;;;;;;4.07;1.70;;;;;;;;;;5070610;28;20380;-72
2021/01/22 08:21:38;;;;;;;2.72;1.55;;;;;;;;;;5069848;28;20471;-72
2021/01/22 08:24:12;;;;;;;2.47;1.50;;;7.80;99.90;;;;;;5070432;28;20379;-72
2021/01/22 08:26:38;;;;;;;3.00;1.30;;;7.30;99.90;;;;;;5070514;28;21035;-72
2021/01/22 08:29:05;;;;;;;2.80;1.38;;;;;;;;;;5070384;28;20387;-72
2021/01/22 08:31:31;;;;;;;3.22;1.30;;;7.50;99.90;;;;;;5070083;28;20380;-72
2021/01/22 08:33:59;;;;;;;2.55;1.70;;;7.30;99.90;;;;;;5070424;28;20380;-72
2021/01/22 08:36:25;;;;;;;2.65;1.20;;;7.50;99.90;;;;;;5070625;28;20742;-72
2021/01/22 08:38:56;;;;;;;2.55;1.40;;;7.60;99.90;;;;;;5070351;28;20382;-72
2021/01/22 08:41:30;;;;;;;3.70;1.52;;;7.60;99.90;;;;;;5070122;28;20410;-72
2021/01/22 08:43:57;;;;;;;3.47;1.40;;;;;;;;;;5070133;28;20380;-72
2021/01/22 08:46:23;;;;;;;3.05;1.30;;;7.40;99.90;;;;;;5070150;28;20438;-72
2021/01/22 08:48:49;;;;;;;3.83;1.42;;;;;;;;;;5070288;28;20380;-72
2021/01/22 08:51:29;;;;;;;3.75;1.40;;;7.70;99.90;;;;;;5069793;28;20379;-72
2021/01/22 08:53:56;;;;;;;5.15;2.53;;;7.50;99.90;;;;;;5069997;28;20376;-72
2021/01/22 08:56:22;;;;;;;6.38;2.65;;;;;;;;;;5070024;28;20379;-72
2021/01/22 08:59:13;;;;;;;2.97;1.57;;;8.30;99.90;;;;;;5069915;28;20376;-72
2021/01/22 09:01:48;;;;;;;2.50;1.33;;;8.10;99.90;;;;;;5069756;28;20436;-72
2021/01/22 09:04:24;;;;;;;2.05;1.35;;;7.60;99.90;;;;;;5068807;28;20890;-72
2021/01/22 09:07:00;;;;;;;3.72;1.10;;;8.00;99.90;;;;;;5069694;28;20811;-72
2021/01/22 09:09:40;;;;;;;2.00;1.30;;;8.40;99.90;;;;;;5069779;28;20376;-72
2021/01/22 09:12:13;;;;;;;2.60;1.13;;;7.90;99.90;;;;;;5056731;28;20878;-72
2021/01/22 09:14:53;;;;;;;2.83;1.05;;;8.40;99.90;;;;;;5069589;28;20384;-72
2021/01/22 09:17:35;;;;;;;2.53;1.10;;;;;;;;;;5069646;28;20427;-72
2021/01/22 09:20:20;;;;;;;2.50;1.30;;;8.40;99.90;;;;;;5069568;28;20430;-72
2021/01/22 09:22:50;;;;;;;3.73;1.30;;;8.10;99.90;;;;;;5069204;28;20380;-72
2021/01/22 09:25:18;;;;;;;4.18;1.50;;;8.80;99.90;;;;;;5069462;28;20410;-72
2021/01/22 09:27:46;;;;;;;4.35;1.70;;;8.80;99.90;;;;;;5068926;28;20543;-72
2021/01/22 09:30:17;;;;;;;4.25;1.27;;;8.40;99.90;;;;;;5069313;28;20388;-72
2021/01/22 09:32:47;;;;;;;2.63;1.23;;;9.20;99.90;;;;;;5068963;28;20392;-72
2021/01/22 09:35:14;;;;;;;3.85;1.27;;;8.70;99.90;;;;;;5069207;28;20448;-72
2021/01/22 09:37:40;;;;;;;1.92;1.00;;;9.30;99.90;;;;;;5069236;28;20446;-71
2021/01/22 09:40:06;;;;;;;2.97;1.05;;;8.80;99.90;;;;;;5069346;28;20865;-72
2021/01/22 09:42:33;;;;;;;1.80;1.00;;;9.20;99.90;;;;;;5067861;28;20846;-72
2021/01/22 09:44:59;;;;;;;2.73;1.10;;;;;;;;;;5067528;28;20498;-72
2021/01/22 09:47:24;;;;;;;2.28;1.20;;;8.50;99.90;;;;;;5069758;28;20445;-72
2021/01/22 09:49:50;;;;;;;6.32;1.80;;;9.10;99.90;;;;;;5069817;28;20788;-72
2021/01/22 09:52:16;;;;;;;6.60;3.28;;;8.60;99.90;;;;;;5069551;28;20407;-72
2021/01/22 09:54:42;;;;;;;5.45;2.72;;;;;;;;;;5069961;28;20387;-72
2021/01/22 09:57:08;;;;;;;4.15;1.50;;;8.90;99.90;;;;;;5069890;28;20754;-72
2021/01/22 09:59:34;;;;;;;2.97;1.20;;;;;;;;;;5070462;28;20422;-72
2021/01/22 10:01:59;;;;;;;4.07;1.10;;;9.00;99.90;;;;;;5068753;28;20412;-72
2021/01/22 10:04:25;;;;;;;3.50;1.10;;;8.90;99.90;;;;;;5069255;28;20388;-72
2021/01/22 10:06:51;;;;;;;2.13;1.13;;;9.20;99.90;;;;;;5069154;28;20917;-72
2021/01/22 10:09:16;;;;;;;2.45;1.17;;;9.50;99.90;;;;;;5062156;28;20393;-72
2021/01/22 10:11:42;;;;;;;2.90;1.17;;;9.40;99.90;;;;;;5068640;28;20384;-72
2021/01/22 10:14:08;;;;;;;2.40;1.10;;;9.90;99.90;;;;;;5080835;28;20473;-72
2021/01/22 10:16:34;;;;;;;3.70;1.20;;;9.60;99.90;;;;;;5083278;28;20400;-72
2021/01/22 10:19:01;;;;;;;3.55;1.35;;;9.90;99.90;;;;;;5070720;28;20380;-72
2021/01/22 10:21:27;;;;;;;2.90;1.60;;;9.70;99.90;;;;;;5070469;28;20466;-72
2021/01/22 10:23:53;;;;;;;6.05;2.38;;;10.00;99.90;;;;;;5071117;28;20380;-72
2021/01/22 10:26:21;;;;;;;2.97;1.20;;;10.20;99.90;;;;;;5071446;28;20412;-72
2021/01/22 10:28:47;;;;;;;3.20;1.20;;;10.30;99.90;;;;;;5071177;28;20510;-72
2021/01/22 10:31:13;;;;;;;4.00;1.40;;;10.30;99.90;;;;;;5070236;28;20737;-72
2021/01/22 10:33:39;;;;;;;4.10;2.03;;;;;;;;;;5070467;28;20451;-72
2021/01/22 10:36:06;;;;;;;5.15;1.58;;;10.30;99.90;;;;;;5070421;28;20512;-72
2021/01/22 10:38:32;;;;;;;3.10;1.40;;;10.20;99.90;;;;;;5070486;28;20384;-72
2021/01/22 10:40:58;;;;;;;5.05;1.65;;;10.00;99.90;;;;;;5070299;28;20391;-72
2021/01/22 10:43:24;;;;;;;3.70;1.40;;;9.90;99.90;;;;;;5070280;28;20387;-72
2021/01/22 10:45:50;;;;;;;4.53;1.33;;;9.70;99.90;;;;;;5070203;28;20395;-72
2021/01/22 10:48:19;;;;;;;3.22;1.20;;;9.80;99.90;;;;;;5070390;28;20376;-72
2021/01/22 10:50:46;;;;;;;4.25;1.33;;;9.70;99.90;;;;;;5069895;28;20375;-72
2021/01/22 10:53:12;;;;;;;3.17;1.13;;;10.00;99.90;;;;;;5069583;28;20387;-72
2021/01/22 10:55:37;;;;;;;3.38;1.20;;;9.80;99.90;;;;;;5069861;28;20723;-72
2021/01/22 10:58:03;;;;;;;3.63;1.38;;;9.80;99.90;;;;;;5070319;28;20738;-72
2021/01/22 11:00:29;;;;;;;2.78;1.02;;;9.90;99.90;;;;;;5075831;28;20452;-72
2021/01/22 11:02:54;;;;;;;3.78;1.30;;;9.90;99.90;;;;;;5081978;28;20386;-72
2021/01/22 11:05:20;;;;;;;6.37;1.30;;;9.60;99.90;;;;;;5080550;28;20431;-72
2021/01/22 11:07:46;;;;;;;3.97;1.27;;;9.80;99.90;;;;;;5074526;28;20478;-72
2021/01/22 11:10:12;;;;;;;2.85;1.30;;;9.80;99.90;;;;;;5080437;28;20392;-72
2021/01/22 11:12:37;;;;;;;3.53;1.33;;;;;;;;;;5077825;28;20388;-72
2021/01/22 11:15:04;;;;;;;5.75;1.90;;;9.60;99.90;;;;;;5078586;28;20380;-72
2021/01/22 11:17:30;;;;;;;4.77;2.00;;;9.70;99.90;;;;;;5081564;28;20385;-72
2021/01/22 11:19:56;;;;;;;4.43;1.80;;;9.60;99.90;;;;;;5077693;28;20449;-72
2021/01/22 11:22:22;;;;;;;4.50;2.00;;;9.80;99.90;;;;;;5083667;28;20458;-72
2021/01/22 11:24:47;;;;;;;3.95;1.55;;;9.90;99.90;;;;;;5081534;28;20433;-72
2021/01/22 11:27:13;;;;;;;4.57;1.60;;;9.80;99.90;;;;;;5082948;28;20377;-72
2021/01/22 11:29:39;;;;;;;2.85;1.50;;;;;;;;;;5083974;28;20405;-72
2021/01/22 11:32:05;;;;;;;4.18;1.30;;;9.70;99.90;;;;;;5085812;28;20886;-72
2021/01/22 11:34:33;;;;;;;4.50;1.50;;;10.30;99.90;;;;;;5082418;28;20851;-73
2021/01/22 11:37:00;;;;;;;3.58;1.30;;;9.50;99.90;;;;;;5085773;28;20413;-72
2021/01/22 11:39:25;;;;;;;2.63;1.23;;;9.60;99.90;;;;;;5084732;28;20386;-72
2021/01/22 11:41:51;;;;;;;3.60;1.27;;;;;;;;;;5085435;28;20472;-72
2021/01/22 11:44:17;;;;;;;3.10;1.38;;;10.00;99.90;;;;;;5083769;28;20384;-72
2021/01/22 11:46:42;;;;;;;6.05;1.33;;;9.50;99.90;;;;;;5089419;28;20410;-72
2021/01/22 11:49:09;;;;;;;3.03;1.20;;;;;;;;;;5073313;28;20433;-72
2021/01/22 11:51:35;;;;;;;3.90;1.38;;;9.80;99.90;;;;;;5073378;28;20467;-72
2021/01/22 11:54:01;;;;;;;3.50;1.40;;;;;;;;;;5073499;28;20455;-72
2021/01/22 11:56:27;;;;;;;2.88;1.10;;;9.60;99.90;;;;;;5073609;28;20383;-72
2021/01/22 11:58:53;;;;;;;3.88;1.50;;;9.60;99.90;;;;;;5073530;28;20384;-72
2021/01/22 12:01:18;;;;;;;7.70;2.20;;;9.90;99.90;;;;;;5073379;28;20390;-72
2021/01/22 12:03:44;;;;;;;4.23;2.10;;;9.60;99.90;;;;;;5073361;28;20380;-72
2021/01/22 12:06:10;;;;;;;6.40;2.40;;;10.10;99.90;;;;;;5073504;28;20897;-72
2021/01/22 12:08:35;;;;;;;4.40;2.03;;;9.80;99.90;;;;;;5073420;28;20383;-72
2021/01/22 12:11:01;;;;;;;3.40;1.20;;;9.90;99.90;;;;;;5073102;28;20470;-72
2021/01/22 12:13:26;;;;;;;3.73;1.43;;;10.20;99.90;;;;;;5073149;28;20430;-72
2021/01/22 12:15:52;;;;;;;4.85;1.35;;;10.50;99.90;;;;;;5073177;28;20387;-72
2021/01/22 12:18:18;;;;;;;4.70;1.40;;;10.50;99.90;;;;;;5073297;28;20419;-72
2021/01/22 12:20:45;;;;;;;4.07;1.55;;;10.70;99.90;;;;;;5073095;28;20412;-72
2021/01/22 12:23:11;;;;;;;5.35;1.38;;;11.00;99.90;;;;;;5073108;28;20873;-72
2021/01/22 12:25:36;;;;;;;5.10;1.60;;;11.40;99.90;;;;;;5073048;28;20431;-72
2021/01/22 12:28:02;;;;;;;4.73;1.70;;;11.30;99.90;;;;;;5072932;28;20401;-72
2021/01/22 12:30:28;;;;;;;4.38;1.45;;;11.40;99.90;;;;;;5072923;28;20398;-72
2021/01/22 12:32:54;;;;;;;5.65;1.42;;;;;;;;;;5072773;28;20424;-72
2021/01/22 12:35:21;;;;;;;4.60;1.42;;;11.30;99.90;;;;;;5073006;28;20887;-72
2021/01/22 12:37:47;;;;;;;4.78;1.50;;;11.50;99.90;;;;;;5072675;28;20813;-72
2021/01/22 12:40:13;;;;;;;3.55;1.20;;;11.30;99.90;;;;;;5072731;28;20449;-72
2021/01/22 12:42:39;;;;;;;4.03;1.33;;;11.20;99.90;;;;;;5072729;28;20683;-72
2021/01/22 12:45:05;;;;;;;3.85;1.50;;;11.30;99.90;;;;;;5072868;28;20391;-72
2021/01/22 12:47:31;;;;;;;7.18;1.50;;;11.30;99.90;;;;;;5072560;28;20380;-72
2021/01/22 12:49:56;;;;;;;2.87;1.23;;;11.50;99.90;;;;;;5072740;28;20520;-72
2021/01/22 12:52:22;;;;;;;5.10;1.47;;;11.20;99.90;;;;;;5072417;28;20465;-72
2021/01/22 12:54:47;;;;;;;3.63;1.30;;;11.40;99.90;;;;;;5072453;28;20380;-72
2021/01/22 12:57:13;;;;;;;5.40;1.60;;;11.40;99.90;;;;;;5072450;28;20736;-72
2021/01/22 12:59:38;;;;;;;5.82;1.52;;;11.50;99.90;;;;;;5072559;28;20892;-73
2021/01/22 13:02:04;;;;;;;4.43;1.97;;;11.50;99.90;;;;;;5072263;28;20388;-72
2021/01/22 13:04:30;;;;;;;4.77;1.57;;;11.80;99.90;;;;;;5072186;28;20383;-72
2021/01/22 13:06:55;;;;;;;5.77;1.47;;;11.30;99.90;;;;;;5072259;28;20383;-72
2021/01/22 13:09:21;;;;;;;4.30;1.60;;;10.90;99.90;;;;;;5072212;28;20390;-72
2021/01/22 13:11:46;;;;;;;4.57;1.70;;;11.00;99.90;;;;;;5071960;28;20741;-72
2021/01/22 13:14:12;;;;;;;4.35;1.70;;;11.50;99.90;;;;;;5072085;28;20806;-72
2021/01/22 13:16:37;;;;;;;5.40;2.13;;;10.80;99.90;;;;;;5072011;28;20396;-72
2021/01/22 13:19:03;;;;;;;5.07;1.90;;;;;;;;;;5072078;28;20865;-72
2021/01/22 13:21:30;;;;;;;6.75;2.10;;;11.20;99.90;;;;;;5071752;28;20711;-72
2021/01/22 13:23:55;;;;;;;5.30;1.88;;;10.70;99.90;;;;;;5071817;28;20474;-72
2021/01/22 13:26:21;;;;;;;5.23;1.63;;;11.10;99.90;;;;;;5071810;28;20973;-72